createdAt,value
2023-01-08T00:02:26.262Z,2.40
2023-01-08T00:04:53.825Z,2.90
2023-01-08T00:07:21.434Z,2.70
2023-01-08T00:09:50.548Z,2.53
2023-01-08T00:12:20.456Z,2.50
2023-01-08T00:14:48.049Z,2.63
2023-01-08T00:17:15.644Z,2.60
2023-01-08T00:19:43.228Z,2.50
2023-01-08T00:22:11.371Z,2.80
2023-01-08T00:24:38.920Z,2.53
2023-01-08T00:27:07.836Z,2.42
2023-01-08T00:29:36.434Z,2.28
2023-01-08T00:32:04.537Z,2.72
2023-01-08T00:34:32.065Z,2.50
2023-01-08T00:36:59.568Z,2.65
2023-01-08T00:39:27.112Z,2.40
2023-01-08T00:41:54.622Z,2.65
2023-01-08T00:44:23.467Z,2.83
2023-01-08T00:46:50.975Z,2.40
2023-01-08T00:49:18.573Z,2.28
2023-01-08T00:51:46.064Z,2.72
2023-01-08T00:54:13.907Z,2.53
2023-01-08T00:56:44.649Z,2.67
2023-01-08T00:59:12.137Z,2.65
2023-01-08T01:01:44.207Z,2.53
2023-01-08T01:04:11.902Z,2.80
2023-01-08T01:06:39.587Z,2.63
2023-01-08T01:09:07.147Z,2.72
2023-01-08T01:11:34.949Z,2.80
2023-01-08T01:14:02.542Z,2.97
2023-01-08T01:16:30.141Z,2.60
2023-01-08T01:18:59.068Z,2.30
2023-01-08T01:21:28.666Z,3.30
2023-01-08T01:23:57.802Z,2.75
2023-01-08T01:26:26.621Z,2.45
2023-01-08T01:28:55.527Z,3.17
2023-01-08T01:31:24.022Z,2.63
2023-01-08T01:33:52.198Z,2.58
2023-01-08T01:36:23.496Z,2.58
2023-01-08T01:38:53.654Z,2.75
2023-01-08T01:41:26.529Z,2.90
2023-01-08T01:43:58.645Z,2.80
2023-01-08T01:46:38.443Z,2.88
2023-01-08T01:49:10.175Z,2.30
2023-01-08T01:51:44.097Z,2.97
2023-01-08T01:54:14.204Z,2.88
2023-01-08T01:56:42.317Z,2.70
2023-01-08T01:59:10.008Z,2.70
2023-01-08T02:01:38.389Z,2.70
2023-01-08T02:04:06.973Z,3.00
2023-01-08T02:06:39.465Z,2.90
2023-01-08T02:09:16.175Z,2.72
2023-01-08T02:12:10.145Z,3.05
2023-01-08T02:14:43.889Z,2.75
2023-01-08T02:17:16.150Z,2.60
2023-01-08T02:19:49.083Z,2.47
2023-01-08T02:22:29.784Z,2.92
2023-01-08T02:25:03.319Z,2.80
2023-01-08T02:27:34.595Z,2.75
2023-01-08T02:30:04.223Z,2.60
2023-01-08T02:32:37.193Z,2.78
2023-01-08T02:35:07.556Z,2.88
2023-01-08T02:37:36.161Z,2.40
2023-01-08T02:40:21.716Z,2.60
2023-01-08T02:42:55.331Z,2.42
2023-01-08T02:45:36.412Z,2.55
2023-01-08T02:48:10.039Z,2.70
2023-01-08T02:50:42.029Z,2.40
2023-01-08T02:53:13.848Z,2.80
2023-01-08T02:55:45.848Z,2.75
2023-01-08T02:58:15.512Z,2.40
2023-01-08T03:00:45.558Z,2.70
2023-01-08T03:03:17.032Z,2.40
2023-01-08T03:05:47.822Z,2.67
2023-01-08T03:08:15.481Z,2.22
2023-01-08T03:10:45.601Z,2.90
2023-01-08T03:13:20.013Z,2.63
2023-01-08T03:15:50.873Z,2.70
2023-01-08T03:18:25.530Z,2.55
2023-01-08T03:20:53.909Z,2.47
2023-01-08T03:23:23.790Z,2.25
2023-01-08T03:25:51.440Z,2.40
2023-01-08T03:28:24.163Z,2.65
2023-01-08T03:30:54.322Z,2.42
2023-01-08T03:33:24.060Z,2.78
2023-01-08T03:35:54.182Z,2.70
2023-01-08T03:38:26.091Z,2.40
2023-01-08T03:40:57.353Z,2.60
2023-01-08T03:43:26.731Z,2.63
2023-01-08T03:45:57.545Z,2.90
2023-01-08T03:48:28.647Z,2.38
2023-01-08T03:50:56.204Z,2.47
2023-01-08T03:53:23.786Z,2.58
2023-01-08T03:55:51.374Z,2.47
2023-01-08T03:58:18.902Z,2.55
2023-01-08T04:00:47.798Z,2.58
2023-01-08T04:03:15.348Z,2.53
2023-01-08T04:05:42.958Z,2.75
2023-01-08T04:08:10.726Z,2.55
2023-01-08T04:10:38.436Z,2.70
2023-01-08T04:13:05.981Z,2.72
2023-01-08T04:15:34.225Z,2.58
2023-01-08T04:18:03.062Z,2.65
2023-01-08T04:20:30.656Z,2.30
2023-01-08T04:22:58.220Z,3.08
2023-01-08T04:25:25.857Z,2.40
2023-01-08T04:27:53.430Z,2.50
2023-01-08T04:30:20.984Z,2.88
2023-01-08T04:32:48.546Z,2.80
2023-01-08T04:35:17.615Z,2.90
2023-01-08T04:37:45.142Z,2.53
2023-01-08T04:40:12.869Z,2.90
2023-01-08T04:42:40.420Z,2.35
2023-01-08T04:45:09.320Z,2.40
2023-01-08T04:47:36.890Z,2.70
2023-01-08T04:50:04.685Z,2.67
2023-01-08T04:52:33.494Z,2.42
2023-01-08T04:55:01.059Z,2.40
2023-01-08T04:57:28.711Z,3.95
2023-01-08T04:59:56.230Z,4.30
2023-01-08T05:02:23.936Z,3.88
2023-01-08T05:04:51.714Z,3.17
2023-01-08T05:07:19.251Z,3.33
2023-01-08T05:09:48.226Z,3.03
2023-01-08T05:12:15.802Z,2.53
2023-01-08T05:14:43.354Z,2.70
2023-01-08T05:17:11.092Z,2.95
2023-01-08T05:19:38.595Z,3.08
2023-01-08T05:22:06.090Z,3.05
2023-01-08T05:24:33.620Z,2.90
2023-01-08T05:27:02.537Z,3.28
2023-01-08T05:29:30.061Z,2.97
2023-01-08T05:31:57.684Z,3.28
2023-01-08T05:34:25.198Z,3.15
2023-01-08T05:36:52.653Z,2.78
2023-01-08T05:39:20.543Z,2.65
2023-01-08T05:41:48.078Z,2.50
2023-01-08T05:44:17.007Z,2.70
2023-01-08T05:46:44.584Z,2.60
2023-01-08T05:49:12.133Z,2.80
2023-01-08T05:51:39.745Z,2.70
2023-01-08T05:54:10.292Z,2.05
2023-01-08T05:56:38.100Z,2.90
2023-01-08T05:59:05.678Z,2.50
2023-01-08T06:01:34.958Z,3.13
2023-01-08T06:04:02.593Z,2.50
2023-01-08T06:06:30.168Z,2.55
2023-01-08T06:08:57.712Z,3.00
2023-01-08T06:11:25.227Z,2.30
2023-01-08T06:13:52.727Z,2.50
2023-01-08T06:16:20.948Z,2.88
2023-01-08T06:18:49.897Z,2.97
2023-01-08T06:21:17.435Z,2.90
2023-01-08T06:23:44.960Z,2.55
2023-01-08T06:26:12.583Z,2.70
2023-01-08T06:28:40.151Z,2.42
2023-01-08T06:31:07.808Z,2.65
2023-01-08T06:33:35.755Z,2.35
2023-01-08T06:36:06.122Z,2.53
2023-01-08T06:38:33.979Z,2.35
2023-01-08T06:41:04.840Z,2.80
2023-01-08T06:43:32.388Z,2.45
2023-01-08T06:46:00.129Z,2.70
2023-01-08T06:48:28.352Z,2.75
2023-01-08T06:50:56.209Z,3.35
2023-01-08T06:53:25.075Z,3.90
2023-01-08T06:55:57.066Z,3.60
2023-01-08T06:58:25.320Z,3.20
2023-01-08T07:00:52.908Z,3.50
2023-01-08T07:03:20.633Z,2.83
2023-01-08T07:05:50.630Z,3.00
2023-01-08T07:08:19.352Z,3.05
2023-01-08T07:10:48.265Z,2.85
2023-01-08T07:13:16.064Z,2.55
2023-01-08T07:15:44.363Z,2.22
2023-01-08T07:18:13.197Z,2.67
2023-01-08T07:20:40.939Z,2.95
2023-01-08T07:23:11.670Z,2.40
2023-01-08T07:25:39.228Z,2.83
2023-01-08T07:28:12.214Z,2.65
2023-01-08T07:30:39.826Z,2.60
2023-01-08T07:33:07.482Z,2.40
2023-01-08T07:35:35.485Z,2.60
2023-01-08T07:38:03.068Z,2.80
2023-01-08T07:40:31.717Z,2.70
2023-01-08T07:43:00.436Z,2.70
2023-01-08T07:45:30.595Z,2.83
2023-01-08T07:47:58.992Z,2.30
2023-01-08T07:50:26.862Z,2.83
2023-01-08T07:52:54.459Z,2.58
2023-01-08T07:55:21.988Z,2.55
2023-01-08T07:57:49.532Z,3.00
2023-01-08T08:00:17.756Z,2.63
2023-01-08T08:02:46.964Z,2.67
2023-01-08T08:05:14.951Z,2.65
2023-01-08T08:07:42.553Z,2.92
2023-01-08T08:10:11.865Z,2.60
2023-01-08T08:12:39.424Z,2.72
2023-01-08T08:15:08.364Z,2.70
2023-01-08T08:17:35.944Z,3.17
2023-01-08T08:20:05.474Z,2.95
2023-01-08T08:22:33.070Z,2.95
2023-01-08T08:25:00.585Z,3.25
2023-01-08T08:27:28.123Z,2.70
2023-01-08T08:29:55.688Z,3.17
2023-01-08T08:32:23.331Z,3.22
2023-01-08T08:34:50.931Z,3.00
2023-01-08T08:37:19.818Z,3.03
2023-01-08T08:39:47.381Z,2.60
2023-01-08T08:42:15.030Z,2.90
2023-01-08T08:44:43.093Z,2.50
2023-01-08T08:47:11.122Z,3.03
2023-01-08T08:49:38.724Z,2.90
2023-01-08T08:52:06.666Z,2.70
2023-01-08T08:54:35.560Z,2.47
2023-01-08T08:57:03.203Z,2.78
2023-01-08T08:59:30.721Z,3.17
2023-01-08T09:01:58.457Z,2.92
2023-01-08T09:04:26.117Z,2.65
2023-01-08T09:06:53.746Z,2.53
2023-01-08T09:09:21.363Z,3.10
2023-01-08T09:11:50.254Z,2.63
2023-01-08T09:14:17.814Z,2.90
2023-01-08T09:16:45.391Z,2.92
2023-01-08T09:19:13.186Z,2.72
2023-01-08T09:21:40.765Z,2.90
2023-01-08T09:24:09.403Z,2.78
2023-01-08T09:26:37.081Z,2.30
2023-01-08T09:29:05.993Z,2.70
2023-01-08T09:31:35.345Z,2.35
2023-01-08T09:34:02.950Z,3.10
2023-01-08T09:36:30.869Z,2.20
2023-01-08T09:38:58.395Z,2.63
2023-01-08T09:41:28.806Z,2.63
2023-01-08T09:43:59.271Z,2.55
2023-01-08T09:46:29.927Z,2.92
2023-01-08T09:49:00.548Z,2.58
2023-01-08T09:51:34.463Z,2.30
2023-01-08T09:54:02.386Z,2.72
2023-01-08T09:56:30.827Z,2.50
2023-01-08T09:59:00.985Z,2.78
2023-01-08T10:01:31.742Z,2.50
2023-01-08T10:04:05.708Z,2.38
2023-01-08T10:06:33.567Z,2.17
2023-01-08T10:09:01.463Z,2.80
2023-01-08T10:11:34.908Z,2.40
2023-01-08T10:14:02.548Z,2.28
2023-01-08T10:16:36.648Z,2.20
2023-01-08T10:19:05.412Z,2.40
2023-01-08T10:21:38.685Z,2.25
2023-01-08T10:24:06.952Z,2.28
2023-01-08T10:26:37.029Z,1.92
2023-01-08T10:29:10.240Z,2.53
2023-01-08T10:31:47.334Z,2.33
2023-01-08T10:34:26.037Z,2.17
2023-01-08T10:36:54.525Z,1.77
2023-01-08T10:39:24.804Z,1.63
2023-01-08T10:42:21.322Z,1.70
2023-01-08T10:44:58.255Z,1.30
2023-01-08T10:47:33.225Z,1.40
2023-01-08T10:50:05.177Z,1.70
2023-01-08T10:52:36.486Z,1.50
2023-01-08T10:55:23.218Z,2.08
2023-01-08T10:58:00.061Z,1.60
2023-01-08T11:00:29.818Z,1.75
2023-01-08T11:03:01.490Z,1.60
2023-01-08T11:05:37.334Z,1.77
2023-01-08T11:08:08.353Z,2.13
2023-01-08T11:10:37.885Z,1.75
2023-01-08T11:13:07.150Z,1.52
2023-01-08T11:15:37.938Z,2.00
2023-01-08T11:18:12.317Z,2.08
2023-01-08T11:20:41.925Z,2.03
2023-01-08T11:23:17.874Z,2.08
2023-01-08T11:25:49.872Z,2.20
2023-01-08T11:28:26.213Z,2.20
2023-01-08T11:31:00.208Z,1.70
2023-01-08T11:33:33.854Z,1.90
2023-01-08T11:36:06.807Z,2.28
2023-01-08T11:38:34.529Z,1.88
2023-01-08T11:41:17.741Z,2.10
2023-01-08T11:43:59.185Z,2.22
2023-01-08T11:46:36.875Z,2.30
2023-01-08T11:49:27.570Z,2.42
2023-01-08T11:52:10.108Z,2.53
2023-01-08T11:54:52.972Z,1.92
2023-01-08T11:57:33.252Z,2.63
2023-01-08T12:00:16.351Z,2.70
2023-01-08T12:02:54.967Z,2.38
2023-01-08T12:05:30.494Z,2.03
2023-01-08T12:08:04.789Z,2.05
2023-01-08T12:10:45.174Z,2.10
2023-01-08T12:13:24.168Z,1.45
2023-01-08T12:16:02.970Z,1.67
2023-01-08T12:18:43.268Z,1.50
2023-01-08T12:21:20.460Z,1.80
2023-01-08T12:24:12.147Z,1.27
2023-01-08T12:26:50.604Z,1.58
2023-01-08T12:29:41.094Z,1.40
2023-01-08T12:32:21.858Z,1.58
2023-01-08T12:34:56.637Z,1.63
2023-01-08T12:37:28.601Z,1.70
2023-01-08T12:40:04.210Z,1.95
2023-01-08T12:42:34.367Z,1.60
2023-01-08T12:45:04.691Z,1.63
2023-01-08T12:47:36.420Z,1.75
2023-01-08T12:50:21.848Z,2.22
2023-01-08T12:52:59.403Z,1.45
2023-01-08T12:55:35.025Z,1.80
2023-01-08T12:58:18.366Z,1.80
2023-01-08T13:00:53.442Z,1.70
2023-01-08T13:03:24.626Z,1.65
2023-01-08T13:05:52.462Z,2.25
2023-01-08T13:08:31.797Z,1.63
2023-01-08T13:10:59.846Z,2.10
2023-01-08T13:13:30.339Z,2.22
2023-01-08T13:16:09.562Z,1.83
2023-01-08T13:18:37.775Z,2.13
2023-01-08T13:21:06.833Z,2.08
2023-01-08T13:23:38.172Z,1.63
2023-01-08T13:26:07.950Z,1.75
2023-01-08T13:28:44.444Z,1.77
2023-01-08T13:31:28.363Z,1.60
2023-01-08T13:33:56.801Z,1.75
2023-01-08T13:36:27.028Z,4.03
2023-01-08T13:39:20.927Z,2.05
2023-01-08T13:41:59.661Z,1.95
2023-01-08T13:44:29.123Z,2.35
2023-01-08T13:46:58.686Z,1.90
2023-01-08T13:49:29.968Z,1.60
2023-01-08T13:51:57.598Z,1.23
2023-01-08T13:54:36.164Z,1.27
2023-01-08T13:57:07.897Z,2.15
2023-01-08T13:59:40.267Z,2.05
2023-01-08T14:02:27.729Z,2.35
2023-01-08T14:04:56.050Z,1.40
2023-01-08T14:07:24.748Z,1.65
2023-01-08T14:09:53.988Z,1.55
2023-01-08T14:12:23.666Z,1.73
2023-01-08T14:14:53.930Z,2.10
2023-01-08T14:17:25.732Z,1.70
2023-01-08T14:19:53.410Z,1.98
2023-01-08T14:22:24.971Z,1.95
2023-01-08T14:24:56.592Z,1.95
2023-01-08T14:27:26.734Z,1.55
2023-01-08T14:29:55.252Z,1.75
2023-01-08T14:32:25.112Z,1.48
2023-01-08T14:34:54.798Z,1.38
2023-01-08T14:37:22.433Z,1.67
2023-01-08T14:39:54.369Z,1.45
2023-01-08T14:42:47.086Z,1.55
2023-01-08T14:45:20.694Z,1.40
2023-01-08T14:47:50.263Z,2.20
2023-01-08T14:50:21.242Z,1.52
2023-01-08T14:52:49.469Z,1.52
2023-01-08T14:55:19.459Z,1.30
2023-01-08T14:57:50.627Z,1.88
2023-01-08T15:00:20.347Z,1.52
2023-01-08T15:02:48.664Z,1.52
2023-01-08T15:05:20.017Z,1.88
2023-01-08T15:07:59.878Z,1.50
2023-01-08T15:10:39.083Z,1.40
2023-01-08T15:13:22.040Z,1.33
2023-01-08T15:15:55.656Z,1.88
2023-01-08T15:18:23.419Z,1.42
2023-01-08T15:20:51.662Z,1.92
2023-01-08T15:23:29.494Z,1.58
2023-01-08T15:25:57.723Z,2.00
2023-01-08T15:28:27.435Z,1.90
2023-01-08T15:30:56.813Z,1.75
2023-01-08T15:33:28.857Z,1.50
2023-01-08T15:35:56.520Z,1.83
2023-01-08T15:38:24.201Z,1.63
2023-01-08T15:40:53.999Z,1.10
2023-01-08T15:43:21.554Z,1.77
2023-01-08T15:45:51.194Z,1.17
2023-01-08T15:48:19.883Z,1.23
2023-01-08T15:50:47.444Z,6.50
2023-01-08T15:53:19.464Z,1.63
2023-01-08T15:55:47.192Z,1.65
2023-01-08T15:58:15.845Z,1.48
2023-01-08T16:00:45.280Z,1.58
2023-01-08T16:03:30.477Z,1.60
2023-01-08T16:05:58.270Z,1.52
2023-01-08T16:08:25.906Z,1.50
2023-01-08T16:10:53.670Z,2.05
2023-01-08T16:13:21.579Z,2.58
2023-01-08T16:15:49.173Z,2.72
2023-01-08T16:18:18.010Z,2.90
2023-01-08T16:20:45.569Z,2.50
2023-01-08T16:23:13.091Z,2.70
2023-01-08T16:25:40.804Z,3.08
2023-01-08T16:28:08.430Z,3.40
2023-01-08T16:30:36.543Z,2.55
2023-01-08T16:33:04.562Z,2.88
2023-01-08T16:35:33.628Z,3.30
2023-01-08T16:38:01.237Z,3.17
2023-01-08T16:40:28.813Z,3.50
2023-01-08T16:43:01.733Z,3.80
2023-01-08T16:45:29.374Z,3.60
2023-01-08T16:47:56.921Z,3.85
2023-01-08T16:50:24.449Z,4.03
2023-01-08T16:52:53.375Z,3.80
2023-01-08T16:55:21.102Z,3.47
2023-01-08T16:57:48.596Z,2.78
2023-01-08T17:00:16.957Z,3.08
2023-01-08T17:02:44.561Z,3.20
2023-01-08T17:05:12.084Z,3.00
2023-01-08T17:07:39.869Z,3.22
2023-01-08T17:10:10.168Z,3.60
2023-01-08T17:12:37.666Z,3.63
2023-01-08T17:15:06.203Z,4.70
2023-01-08T17:17:33.976Z,4.07
2023-01-08T17:20:01.623Z,4.38
2023-01-08T17:22:29.342Z,4.63
2023-01-08T17:24:57.006Z,3.72
2023-01-08T17:27:25.970Z,3.22
2023-01-08T17:29:53.553Z,2.90
2023-01-08T17:32:21.614Z,2.97
2023-01-08T17:34:49.184Z,3.40
2023-01-08T17:37:16.790Z,3.42
2023-01-08T17:39:45.617Z,2.03
2023-01-08T17:42:27.507Z,2.05
2023-01-08T17:44:57.938Z,2.55
2023-01-08T17:47:26.855Z,1.80
2023-01-08T17:49:56.405Z,1.95
2023-01-08T17:52:25.923Z,1.70
2023-01-08T17:54:53.986Z,2.10
2023-01-08T17:57:22.322Z,2.30
2023-01-08T17:59:50.316Z,2.47
2023-01-08T18:02:19.379Z,2.25
2023-01-08T18:04:47.106Z,2.95
2023-01-08T18:07:15.346Z,2.55
2023-01-08T18:09:43.015Z,1.73
2023-01-08T18:12:10.678Z,2.10
2023-01-08T18:14:39.701Z,2.72
2023-01-08T18:17:07.361Z,3.08
2023-01-08T18:19:36.401Z,2.58
2023-01-08T18:22:04.038Z,2.65
2023-01-08T18:24:31.676Z,2.17
2023-01-08T18:26:59.197Z,1.70
2023-01-08T18:29:26.712Z,1.55
2023-01-08T18:31:54.335Z,1.67
2023-01-08T18:34:21.981Z,1.33
2023-01-08T18:36:50.974Z,1.83
2023-01-08T18:39:18.602Z,1.60
2023-01-08T18:42:03.939Z,1.88
2023-01-08T18:44:31.503Z,1.40
2023-01-08T18:46:59.126Z,1.30
2023-01-08T18:49:27.512Z,1.50
2023-01-08T18:51:56.491Z,2.22
2023-01-08T18:54:24.184Z,1.27
2023-01-08T18:56:52.053Z,1.40
2023-01-08T18:59:19.664Z,1.40
2023-01-08T19:01:47.402Z,1.42
2023-01-08T19:04:17.151Z,2.63
2023-01-08T19:06:44.841Z,1.60
2023-01-08T19:09:15.385Z,1.40
2023-01-08T19:11:43.190Z,1.48
2023-01-08T19:14:12.667Z,1.38
2023-01-08T19:16:40.859Z,1.63
2023-01-08T19:19:08.444Z,1.50
2023-01-08T19:21:36.482Z,1.42
2023-01-08T19:24:04.041Z,1.55
2023-01-08T19:26:32.978Z,1.48
2023-01-08T19:29:00.728Z,1.45
2023-01-08T19:31:28.319Z,1.88
2023-01-08T19:33:58.652Z,1.80
2023-01-08T19:36:29.239Z,1.60
2023-01-08T19:38:57.428Z,1.40
2023-01-08T19:41:42.932Z,1.38
2023-01-08T19:44:12.348Z,1.30
2023-01-08T19:46:39.963Z,1.30
2023-01-08T19:49:07.634Z,1.40
2023-01-08T19:51:35.239Z,1.35
2023-01-08T19:54:02.859Z,1.48
2023-01-08T19:56:30.533Z,1.60
2023-01-08T19:58:58.625Z,1.90
2023-01-08T20:01:28.691Z,2.20
2023-01-08T20:03:57.003Z,2.70
2023-01-08T20:06:26.548Z,2.40
2023-01-08T20:08:57.078Z,2.40
2023-01-08T20:11:25.449Z,2.08
2023-01-08T20:13:55.347Z,2.28
2023-01-08T20:16:24.185Z,2.17
2023-01-08T20:18:56.516Z,2.97
2023-01-08T20:21:24.104Z,4.32
2023-01-08T20:23:58.062Z,5.40
2023-01-08T20:26:27.009Z,5.50
2023-01-08T20:28:56.384Z,4.53
2023-01-08T20:31:26.300Z,4.20
2023-01-08T20:33:56.835Z,4.00
2023-01-08T20:36:27.630Z,3.75
2023-01-08T20:38:57.617Z,3.22
2023-01-08T20:41:26.323Z,2.45
2023-01-08T20:43:56.018Z,1.83
2023-01-08T20:46:24.084Z,2.00
2023-01-08T20:48:51.702Z,1.85
2023-01-08T20:51:20.691Z,1.83
2023-01-08T20:53:48.453Z,1.50
2023-01-08T20:56:16.848Z,1.67
2023-01-08T20:58:46.300Z,2.22
2023-01-08T21:01:17.128Z,3.22
2023-01-08T21:03:45.661Z,2.50
2023-01-08T21:06:15.720Z,2.38
2023-01-08T21:08:46.184Z,2.03
2023-01-08T21:11:15.385Z,2.10
2023-01-08T21:13:43.810Z,2.60
2023-01-08T21:16:14.725Z,2.97
2023-01-08T21:18:44.071Z,3.20
2023-01-08T21:21:13.031Z,2.30
2023-01-08T21:23:41.008Z,2.10
2023-01-08T21:26:11.907Z,1.92
2023-01-08T21:28:40.653Z,2.25
2023-01-08T21:31:10.217Z,2.00
2023-01-08T21:33:39.181Z,2.13
2023-01-08T21:36:12.725Z,2.30
2023-01-08T21:38:42.019Z,2.20
2023-01-08T21:41:33.339Z,2.00
2023-01-08T21:44:19.327Z,2.20
2023-01-08T21:46:47.468Z,2.03
2023-01-08T21:49:15.536Z,2.45
2023-01-08T21:52:01.071Z,2.15
2023-01-08T21:54:28.683Z,2.20
2023-01-08T21:56:57.975Z,2.20
2023-01-08T21:59:25.649Z,2.13
2023-01-08T22:01:53.396Z,2.03
2023-01-08T22:04:21.264Z,2.80
2023-01-08T22:06:49.049Z,2.40
2023-01-08T22:09:16.567Z,2.25
2023-01-08T22:11:44.278Z,1.98
2023-01-08T22:14:13.482Z,2.67
2023-01-08T22:16:41.147Z,2.20
2023-01-08T22:19:08.724Z,2.00
2023-01-08T22:21:36.409Z,1.67
2023-01-08T22:24:04.128Z,2.15
2023-01-08T22:26:33.035Z,2.10
2023-01-08T22:29:00.681Z,2.10
2023-01-08T22:31:29.712Z,1.90
2023-01-08T22:33:58.233Z,2.10
2023-01-08T22:36:26.673Z,1.60
2023-01-08T22:38:54.294Z,1.90
2023-01-08T22:41:23.675Z,1.88
2023-01-08T22:43:55.755Z,2.05
2023-01-08T22:46:24.325Z,1.90
2023-01-08T22:48:53.346Z,2.22
2023-01-08T22:51:22.011Z,2.17
2023-01-08T22:53:49.542Z,2.55
2023-01-08T22:56:17.044Z,2.30
2023-01-08T22:58:45.773Z,2.50
2023-01-08T23:01:14.893Z,2.03
2023-01-08T23:03:44.091Z,2.30
2023-01-08T23:06:14.396Z,2.22
2023-01-08T23:08:43.652Z,1.90
2023-01-08T23:11:13.977Z,2.22
2023-01-08T23:13:42.191Z,2.58
2023-01-08T23:16:12.462Z,2.13
2023-01-08T23:18:40.421Z,2.40
2023-01-08T23:21:10.210Z,2.22
2023-01-08T23:23:39.529Z,1.92
2023-01-08T23:26:08.753Z,2.17
2023-01-08T23:28:36.726Z,1.98
2023-01-08T23:31:07.620Z,1.90
2023-01-08T23:33:35.204Z,2.33
2023-01-08T23:36:02.974Z,2.35
2023-01-08T23:38:30.605Z,2.15
2023-01-08T23:41:00.081Z,2.03
2023-01-08T23:43:27.662Z,2.38
2023-01-08T23:45:55.637Z,2.67
2023-01-08T23:48:23.360Z,2.40
2023-01-08T23:50:50.943Z,2.28
2023-01-08T23:53:18.590Z,1.95
2023-01-08T23:55:46.191Z,1.90
2023-01-08T23:58:15.129Z,2.53
